sensor_id;sensor_type;location;lat;lon;timestamp;temperature;humidity
25436;DHT22;13363;52.772;-3.890;2023-08-12T07:17:21;16.90;99.90
25436;DHT22;13363;52.772;-3.890;2023-08-12T07:19:47;17.00;99.90
25436;DHT22;13363;52.772;-3.890;2023-08-12T07:22:13;17.00;99.90
25436;DHT22;13363;52.772;-3.890;2023-08-12T07:24:39;17.00;99.90
25436;DHT22;13363;52.772;-3.890;2023-08-12T07:27:05;17.10;99.90
25436;DHT22;13363;52.772;-3.890;2023-08-12T07:31:57;17.20;99.90
25436;DHT22;13363;52.772;-3.890;2023-08-12T07:34:22;17.20;99.90
25436;DHT22;13363;52.772;-3.890;2023-08-12T07:36:48;17.20;99.90
25436;DHT22;13363;52.772;-3.890;2023-08-12T07:39:14;17.20;99.90
25436;DHT22;13363;52.772;-3.890;2023-08-12T07:41:40;17.20;99.90
25436;DHT22;13363;52.772;-3.890;2023-08-12T07:44:06;17.20;99.90
25436;DHT22;13363;52.772;-3.890;2023-08-12T07:46:32;17.20;99.90
25436;DHT22;13363;52.772;-3.890;2023-08-12T07:51:24;17.20;99.90
25436;DHT22;13363;52.772;-3.890;2023-08-12T07:53:49;17.20;99.90
25436;DHT22;13363;52.772;-3.890;2023-08-12T07:56:15;17.30;99.90
25436;DHT22;13363;52.772;-3.890;2023-08-12T07:58:41;17.30;99.90
25436;DHT22;13363;52.772;-3.890;2023-08-12T08:01:07;17.30;99.90
25436;DHT22;13363;52.772;-3.890;2023-08-12T08:03:34;17.40;99.90
25436;DHT22;13363;52.772;-3.890;2023-08-12T08:06:00;17.40;99.90
25436;DHT22;13363;52.772;-3.890;2023-08-12T08:08:26;17.40;99.90
25436;DHT22;13363;52.772;-3.890;2023-08-12T08:10:52;17.40;99.90
25436;DHT22;13363;52.772;-3.890;2023-08-12T08:13:18;17.30;99.90
25436;DHT22;13363;52.772;-3.890;2023-08-12T08:15:44;17.20;99.90
25436;DHT22;13363;52.772;-3.890;2023-08-12T08:18:10;17.20;99.90
25436;DHT22;13363;52.772;-3.890;2023-08-12T08:20:36;17.10;99.90
25436;DHT22;13363;52.772;-3.890;2023-08-12T08:23:01;17.00;99.90
25436;DHT22;13363;52.772;-3.890;2023-08-12T08:25:27;17.00;99.90
25436;DHT22;13363;52.772;-3.890;2023-08-12T08:27:53;16.90;99.90
25436;DHT22;13363;52.772;-3.890;2023-08-12T08:30:19;16.90;99.90
25436;DHT22;13363;52.772;-3.890;2023-08-12T08:32:45;16.90;99.90
25436;DHT22;13363;52.772;-3.890;2023-08-12T08:35:12;16.90;99.90
25436;DHT22;13363;52.772;-3.890;2023-08-12T08:37:38;16.90;99.90
25436;DHT22;13363;52.772;-3.890;2023-08-12T08:40:04;16.90;99.90
25436;DHT22;13363;52.772;-3.890;2023-08-12T08:42:31;16.90;99.90
25436;DHT22;13363;52.772;-3.890;2023-08-12T08:44:58;16.90;99.90
25436;DHT22;13363;52.772;-3.890;2023-08-12T08:47:27;17.00;99.90
25436;DHT22;13363;52.772;-3.890;2023-08-12T08:49:55;16.90;99.90
25436;DHT22;13363;52.772;-3.890;2023-08-12T08:52:24;17.00;99.90
25436;DHT22;13363;52.772;-3.890;2023-08-12T08:54:50;17.10;99.90
25436;DHT22;13363;52.772;-3.890;2023-08-12T08:57:17;17.10;99.90
25436;DHT22;13363;52.772;-3.890;2023-08-12T08:59:43;17.20;99.90
25436;DHT22;13363;52.772;-3.890;2023-08-12T09:02:16;17.70;99.90
25436;DHT22;13363;52.772;-3.890;2023-08-12T09:04:46;17.30;99.90
25436;DHT22;13363;52.772;-3.890;2023-08-12T09:09:45;17.30;99.90
25436;DHT22;13363;52.772;-3.890;2023-08-12T09:12:15;17.30;99.90
25436;DHT22;13363;52.772;-3.890;2023-08-12T09:14:42;17.30;99.90
25436;DHT22;13363;52.772;-3.890;2023-08-12T09:17:09;17.40;99.90
25436;DHT22;13363;52.772;-3.890;2023-08-12T09:19:35;17.30;99.90
25436;DHT22;13363;52.772;-3.890;2023-08-12T09:22:05;17.30;99.90
25436;DHT22;13363;52.772;-3.890;2023-08-12T09:26:57;17.40;99.90
25436;DHT22;13363;52.772;-3.890;2023-08-12T09:29:30;17.50;99.90
25436;DHT22;13363;52.772;-3.890;2023-08-12T09:32:20;17.50;99.90
25436;DHT22;13363;52.772;-3.890;2023-08-12T09:34:47;17.50;99.90
25436;DHT22;13363;52.772;-3.890;2023-08-12T09:37:15;17.50;99.90
25436;DHT22;13363;52.772;-3.890;2023-08-12T09:39:41;17.50;99.90
25436;DHT22;13363;52.772;-3.890;2023-08-12T09:42:07;17.60;99.90
25436;DHT22;13363;52.772;-3.890;2023-08-12T09:44:39;17.60;99.90
25436;DHT22;13363;52.772;-3.890;2023-08-12T09:47:08;17.70;99.90
25436;DHT22;13363;52.772;-3.890;2023-08-12T09:49:35;17.70;99.90
25436;DHT22;13363;52.772;-3.890;2023-08-12T09:52:02;17.60;99.90
25436;DHT22;13363;52.772;-3.890;2023-08-12T09:54:31;17.60;99.90
25436;DHT22;13363;52.772;-3.890;2023-08-12T09:56:59;17.60;99.90
25436;DHT22;13363;52.772;-3.890;2023-08-12T09:59:36;17.60;99.90
25436;DHT22;13363;52.772;-3.890;2023-08-12T10:02:07;17.50;99.90
25436;DHT22;13363;52.772;-3.890;2023-08-12T10:04:44;17.50;99.90
25436;DHT22;13363;52.772;-3.890;2023-08-12T10:07:11;17.60;99.90
25436;DHT22;13363;52.772;-3.890;2023-08-12T10:09:40;17.60;99.90
25436;DHT22;13363;52.772;-3.890;2023-08-12T10:12:07;17.60;99.90
25436;DHT22;13363;52.772;-3.890;2023-08-12T10:14:33;17.60;99.90
25436;DHT22;13363;52.772;-3.890;2023-08-12T10:19:26;17.60;99.90
25436;DHT22;13363;52.772;-3.890;2023-08-12T10:21:56;17.50;99.90
25436;DHT22;13363;52.772;-3.890;2023-08-12T10:24:27;17.40;99.90
25436;DHT22;13363;52.772;-3.890;2023-08-12T10:26:53;17.40;99.90
25436;DHT22;13363;52.772;-3.890;2023-08-12T10:29:20;17.40;99.90
25436;DHT22;13363;52.772;-3.890;2023-08-12T10:31:47;17.40;99.90
25436;DHT22;13363;52.772;-3.890;2023-08-12T10:34:23;17.50;99.90
25436;DHT22;13363;52.772;-3.890;2023-08-12T10:36:57;17.50;99.90
25436;DHT22;13363;52.772;-3.890;2023-08-12T10:39:26;17.60;99.90
25436;DHT22;13363;52.772;-3.890;2023-08-12T10:41:56;17.60;99.90
25436;DHT22;13363;52.772;-3.890;2023-08-12T10:45:12;17.70;99.90
25436;DHT22;13363;52.772;-3.890;2023-08-12T10:47:12;17.80;99.90
25436;DHT22;13363;52.772;-3.890;2023-08-12T10:49:42;17.90;99.90
25436;DHT22;13363;52.772;-3.890;2023-08-12T10:54:52;17.90;99.90
25436;DHT22;13363;52.772;-3.890;2023-08-12T10:57:18;17.90;99.90
25436;DHT22;13363;52.772;-3.890;2023-08-12T10:59:59;17.90;99.90
25436;DHT22;13363;52.772;-3.890;2023-08-12T11:02:32;17.90;99.90
25436;DHT22;13363;52.772;-3.890;2023-08-12T11:05:08;17.80;99.90
25436;DHT22;13363;52.772;-3.890;2023-08-12T11:07:38;17.80;99.90
25436;DHT22;13363;52.772;-3.890;2023-08-12T11:10:25;17.60;99.90
25436;DHT22;13363;52.772;-3.890;2023-08-12T11:15:18;17.30;99.90
25436;DHT22;13363;52.772;-3.890;2023-08-12T11:17:46;17.20;99.90
25436;DHT22;13363;52.772;-3.890;2023-08-12T11:20:13;17.30;99.90
25436;DHT22;13363;52.772;-3.890;2023-08-12T11:22:43;17.30;99.90
25436;DHT22;13363;52.772;-3.890;2023-08-12T11:25:11;17.40;99.90
25436;DHT22;13363;52.772;-3.890;2023-08-12T11:27:41;17.50;99.90
25436;DHT22;13363;52.772;-3.890;2023-08-12T11:30:09;17.70;99.90
25436;DHT22;13363;52.772;-3.890;2023-08-12T11:32:39;17.80;99.90
25436;DHT22;13363;52.772;-3.890;2023-08-12T11:35:07;17.80;99.90
25436;DHT22;13363;52.772;-3.890;2023-08-12T11:37:35;17.90;99.90
25436;DHT22;13363;52.772;-3.890;2023-08-12T11:40:06;17.80;99.90
25436;DHT22;13363;52.772;-3.890;2023-08-12T11:42:39;17.80;99.90
25436;DHT22;13363;52.772;-3.890;2023-08-12T11:45:05;17.80;99.90
25436;DHT22;13363;52.772;-3.890;2023-08-12T11:49:58;17.90;99.90
25436;DHT22;13363;52.772;-3.890;2023-08-12T11:52:24;18.10;99.90
25436;DHT22;13363;52.772;-3.890;2023-08-12T11:54:51;18.10;99.90
25436;DHT22;13363;52.772;-3.890;2023-08-12T11:57:17;18.20;99.90
25436;DHT22;13363;52.772;-3.890;2023-08-12T11:59:43;18.30;99.90
25436;DHT22;13363;52.772;-3.890;2023-08-12T12:02:10;18.50;99.90
25436;DHT22;13363;52.772;-3.890;2023-08-12T12:04:36;18.50;99.90
25436;DHT22;13363;52.772;-3.890;2023-08-12T12:07:02;18.30;99.90
25436;DHT22;13363;52.772;-3.890;2023-08-12T12:09:32;18.20;99.90
25436;DHT22;13363;52.772;-3.890;2023-08-12T12:11:58;18.20;99.90
25436;DHT22;13363;52.772;-3.890;2023-08-12T12:14:25;18.20;99.90
25436;DHT22;13363;52.772;-3.890;2023-08-12T12:16:51;18.30;99.90
25436;DHT22;13363;52.772;-3.890;2023-08-12T12:19:22;18.30;99.90
25436;DHT22;13363;52.772;-3.890;2023-08-12T12:21:50;18.50;99.90
25436;DHT22;13363;52.772;-3.890;2023-08-12T12:24:17;18.50;99.90
25436;DHT22;13363;52.772;-3.890;2023-08-12T12:26:44;18.60;99.90
25436;DHT22;13363;52.772;-3.890;2023-08-12T12:29:11;18.90;99.90
25436;DHT22;13363;52.772;-3.890;2023-08-12T12:31:41;19.00;99.90
25436;DHT22;13363;52.772;-3.890;2023-08-12T12:34:07;19.20;99.90
25436;DHT22;13363;52.772;-3.890;2023-08-12T12:36:36;19.20;99.90
25436;DHT22;13363;52.772;-3.890;2023-08-12T12:39:05;19.30;99.90
25436;DHT22;13363;52.772;-3.890;2023-08-12T12:41:31;19.30;99.90
25436;DHT22;13363;52.772;-3.890;2023-08-12T12:44:00;19.40;99.90
25436;DHT22;13363;52.772;-3.890;2023-08-12T12:46:26;19.30;99.90
25436;DHT22;13363;52.772;-3.890;2023-08-12T12:48:52;19.00;99.90
25436;DHT22;13363;52.772;-3.890;2023-08-12T12:51:18;19.10;99.90
25436;DHT22;13363;52.772;-3.890;2023-08-12T12:53:44;19.10;99.90
25436;DHT22;13363;52.772;-3.890;2023-08-12T12:56:10;19.10;99.90
25436;DHT22;13363;52.772;-3.890;2023-08-12T12:58:36;19.20;99.90
25436;DHT22;13363;52.772;-3.890;2023-08-12T13:01:04;19.10;99.90
25436;DHT22;13363;52.772;-3.890;2023-08-12T13:03:33;19.00;99.90
25436;DHT22;13363;52.772;-3.890;2023-08-12T13:05:59;19.00;99.90
25436;DHT22;13363;52.772;-3.890;2023-08-12T13:08:29;18.80;99.90
25436;DHT22;13363;52.772;-3.890;2023-08-12T13:10:56;18.50;99.90
25436;DHT22;13363;52.772;-3.890;2023-08-12T13:13:22;18.50;99.90
25436;DHT22;13363;52.772;-3.890;2023-08-12T13:15:47;18.60;99.90
25436;DHT22;13363;52.772;-3.890;2023-08-12T13:18:13;18.70;99.90
25436;DHT22;13363;52.772;-3.890;2023-08-12T13:20:39;18.70;99.90
25436;DHT22;13363;52.772;-3.890;2023-08-12T13:23:05;18.80;99.90
25436;DHT22;13363;52.772;-3.890;2023-08-12T13:25:34;18.50;99.90
25436;DHT22;13363;52.772;-3.890;2023-08-12T13:28:02;18.50;99.90
25436;DHT22;13363;52.772;-3.890;2023-08-12T13:30:29;18.60;99.90
25436;DHT22;13363;52.772;-3.890;2023-08-12T13:32:55;18.80;99.90
25436;DHT22;13363;52.772;-3.890;2023-08-12T13:35:22;18.80;99.90
25436;DHT22;13363;52.772;-3.890;2023-08-12T13:37:49;18.80;99.90
25436;DHT22;13363;52.772;-3.890;2023-08-12T13:40:15;18.90;99.90
25436;DHT22;13363;52.772;-3.890;2023-08-12T13:42:42;18.90;99.90
25436;DHT22;13363;52.772;-3.890;2023-08-12T13:45:09;19.00;99.90
25436;DHT22;13363;52.772;-3.890;2023-08-12T13:47:35;19.10;99.90
25436;DHT22;13363;52.772;-3.890;2023-08-12T13:50:01;19.20;99.90
25436;DHT22;13363;52.772;-3.890;2023-08-12T13:52:27;19.50;99.90
25436;DHT22;13363;52.772;-3.890;2023-08-12T13:54:53;19.40;99.90
25436;DHT22;13363;52.772;-3.890;2023-08-12T13:57:18;19.30;99.90
25436;DHT22;13363;52.772;-3.890;2023-08-12T13:59:44;19.20;99.90
25436;DHT22;13363;52.772;-3.890;2023-08-12T14:02:10;19.30;99.90
25436;DHT22;13363;52.772;-3.890;2023-08-12T14:04:36;19.30;99.90
25436;DHT22;13363;52.772;-3.890;2023-08-12T14:07:03;19.10;99.90
25436;DHT22;13363;52.772;-3.890;2023-08-12T14:09:29;19.10;99.90
25436;DHT22;13363;52.772;-3.890;2023-08-12T14:11:55;18.90;99.90
25436;DHT22;13363;52.772;-3.890;2023-08-12T14:14:21;18.80;99.90
25436;DHT22;13363;52.772;-3.890;2023-08-12T14:16:47;18.80;99.90
25436;DHT22;13363;52.772;-3.890;2023-08-12T14:19:13;18.50;99.90
25436;DHT22;13363;52.772;-3.890;2023-08-12T14:21:42;18.40;99.90
25436;DHT22;13363;52.772;-3.890;2023-08-12T14:24:08;18.30;99.90
25436;DHT22;13363;52.772;-3.890;2023-08-12T14:26:34;18.40;99.90
25436;DHT22;13363;52.772;-3.890;2023-08-12T14:29:01;18.50;99.90
25436;DHT22;13363;52.772;-3.890;2023-08-12T14:31:27;18.50;99.90
25436;DHT22;13363;52.772;-3.890;2023-08-12T14:33:52;18.50;99.90
25436;DHT22;13363;52.772;-3.890;2023-08-12T14:36:18;18.70;99.90
25436;DHT22;13363;52.772;-3.890;2023-08-12T14:38:44;18.70;99.90
25436;DHT22;13363;52.772;-3.890;2023-08-12T14:41:10;18.60;99.90
25436;DHT22;13363;52.772;-3.890;2023-08-12T14:43:36;18.50;99.90
25436;DHT22;13363;52.772;-3.890;2023-08-12T14:46:02;18.50;99.90
25436;DHT22;13363;52.772;-3.890;2023-08-12T14:48:28;18.60;99.90
25436;DHT22;13363;52.772;-3.890;2023-08-12T14:50:55;18.70;99.90
25436;DHT22;13363;52.772;-3.890;2023-08-12T14:53:21;18.70;99.90
25436;DHT22;13363;52.772;-3.890;2023-08-12T14:55:47;18.70;99.90
25436;DHT22;13363;52.772;-3.890;2023-08-12T14:58:12;18.80;99.90
25436;DHT22;13363;52.772;-3.890;2023-08-12T15:00:38;18.90;99.90
25436;DHT22;13363;52.772;-3.890;2023-08-12T15:03:04;18.80;99.90
25436;DHT22;13363;52.772;-3.890;2023-08-12T15:05:30;18.70;99.90
25436;DHT22;13363;52.772;-3.890;2023-08-12T15:07:56;18.80;99.90
25436;DHT22;13363;52.772;-3.890;2023-08-12T15:10:22;18.80;99.90
25436;DHT22;13363;52.772;-3.890;2023-08-12T15:12:48;18.90;99.90
25436;DHT22;13363;52.772;-3.890;2023-08-12T15:15:14;18.90;99.90
25436;DHT22;13363;52.772;-3.890;2023-08-12T15:17:40;18.90;99.90
25436;DHT22;13363;52.772;-3.890;2023-08-12T15:20:07;18.90;99.90
25436;DHT22;13363;52.772;-3.890;2023-08-12T15:22:35;19.00;99.90
25436;DHT22;13363;52.772;-3.890;2023-08-12T15:25:01;18.90;99.90
25436;DHT22;13363;52.772;-3.890;2023-08-12T15:27:27;18.80;99.90
25436;DHT22;13363;52.772;-3.890;2023-08-12T15:29:54;18.80;99.90
25436;DHT22;13363;52.772;-3.890;2023-08-12T15:32:20;18.80;99.90
25436;DHT22;13363;52.772;-3.890;2023-08-12T15:34:46;18.80;99.90
25436;DHT22;13363;52.772;-3.890;2023-08-12T15:37:12;18.90;99.90
25436;DHT22;13363;52.772;-3.890;2023-08-12T15:39:38;18.90;99.90
25436;DHT22;13363;52.772;-3.890;2023-08-12T15:42:04;18.80;99.90
25436;DHT22;13363;52.772;-3.890;2023-08-12T15:44:30;18.60;99.90
25436;DHT22;13363;52.772;-3.890;2023-08-12T15:46:56;18.60;99.90
25436;DHT22;13363;52.772;-3.890;2023-08-12T15:49:21;18.60;99.90
25436;DHT22;13363;52.772;-3.890;2023-08-12T15:51:47;18.60;99.90
25436;DHT22;13363;52.772;-3.890;2023-08-12T15:54:13;18.70;99.90
25436;DHT22;13363;52.772;-3.890;2023-08-12T15:56:39;18.60;99.90
25436;DHT22;13363;52.772;-3.890;2023-08-12T15:59:06;18.60;99.90
25436;DHT22;13363;52.772;-3.890;2023-08-12T16:01:32;18.60;99.90
25436;DHT22;13363;52.772;-3.890;2023-08-12T16:03:59;18.60;99.90
25436;DHT22;13363;52.772;-3.890;2023-08-12T16:06:25;18.60;99.90
25436;DHT22;13363;52.772;-3.890;2023-08-12T16:08:51;18.60;99.90
25436;DHT22;13363;52.772;-3.890;2023-08-12T16:11:18;18.60;99.90
25436;DHT22;13363;52.772;-3.890;2023-08-12T16:13:44;18.60;99.90
25436;DHT22;13363;52.772;-3.890;2023-08-12T16:16:10;18.60;99.90
25436;DHT22;13363;52.772;-3.890;2023-08-12T16:18:36;18.60;99.90
25436;DHT22;13363;52.772;-3.890;2023-08-12T16:21:02;18.60;99.90
25436;DHT22;13363;52.772;-3.890;2023-08-12T16:23:27;18.60;99.90
25436;DHT22;13363;52.772;-3.890;2023-08-12T16:25:58;18.60;99.90
25436;DHT22;13363;52.772;-3.890;2023-08-12T16:28:24;18.60;99.90
25436;DHT22;13363;52.772;-3.890;2023-08-12T16:30:51;18.50;99.90
25436;DHT22;13363;52.772;-3.890;2023-08-12T16:33:17;18.50;99.90
25436;DHT22;13363;52.772;-3.890;2023-08-12T16:35:42;18.60;99.90
25436;DHT22;13363;52.772;-3.890;2023-08-12T16:38:08;18.70;99.90
25436;DHT22;13363;52.772;-3.890;2023-08-12T16:40:34;18.60;99.90
25436;DHT22;13363;52.772;-3.890;2023-08-12T16:43:00;18.60;99.90
25436;DHT22;13363;52.772;-3.890;2023-08-12T16:45:26;18.70;99.90
25436;DHT22;13363;52.772;-3.890;2023-08-12T16:47:51;18.60;99.90
25436;DHT22;13363;52.772;-3.890;2023-08-12T16:52:44;18.40;99.90
25436;DHT22;13363;52.772;-3.890;2023-08-12T16:55:10;18.40;99.90
25436;DHT22;13363;52.772;-3.890;2023-08-12T16:57:35;18.50;99.90
25436;DHT22;13363;52.772;-3.890;2023-08-12T17:00:01;18.50;99.90
25436;DHT22;13363;52.772;-3.890;2023-08-12T17:02:30;18.50;99.90
25436;DHT22;13363;52.772;-3.890;2023-08-12T17:04:56;18.60;99.90
25436;DHT22;13363;52.772;-3.890;2023-08-12T17:07:22;18.50;99.90
25436;DHT22;13363;52.772;-3.890;2023-08-12T17:09:48;18.60;99.90
25436;DHT22;13363;52.772;-3.890;2023-08-12T17:12:14;18.50;99.90
25436;DHT22;13363;52.772;-3.890;2023-08-12T17:14:40;18.40;99.90
25436;DHT22;13363;52.772;-3.890;2023-08-12T17:17:05;18.50;99.90
25436;DHT22;13363;52.772;-3.890;2023-08-12T17:19:31;18.50;99.90
25436;DHT22;13363;52.772;-3.890;2023-08-12T17:21:57;18.40;99.90
25436;DHT22;13363;52.772;-3.890;2023-08-12T17:24:23;18.40;99.90
25436;DHT22;13363;52.772;-3.890;2023-08-12T17:26:50;18.50;99.90
25436;DHT22;13363;52.772;-3.890;2023-08-12T17:29:16;18.50;99.90
25436;DHT22;13363;52.772;-3.890;2023-08-12T17:31:42;18.40;99.90
25436;DHT22;13363;52.772;-3.890;2023-08-12T17:34:07;18.30;99.90
25436;DHT22;13363;52.772;-3.890;2023-08-12T17:36:33;18.30;99.90
25436;DHT22;13363;52.772;-3.890;2023-08-12T17:38:59;18.30;99.90
25436;DHT22;13363;52.772;-3.890;2023-08-12T17:41:25;18.30;99.90
25436;DHT22;13363;52.772;-3.890;2023-08-12T17:43:51;18.30;99.90
25436;DHT22;13363;52.772;-3.890;2023-08-12T17:46:16;18.30;99.90
25436;DHT22;13363;52.772;-3.890;2023-08-12T17:48:43;18.30;99.90
25436;DHT22;13363;52.772;-3.890;2023-08-12T17:51:08;18.20;99.90
25436;DHT22;13363;52.772;-3.890;2023-08-12T17:53:42;18.10;99.90
25436;DHT22;13363;52.772;-3.890;2023-08-12T17:56:08;18.10;99.90
25436;DHT22;13363;52.772;-3.890;2023-08-12T17:58:35;18.20;99.90
25436;DHT22;13363;52.772;-3.890;2023-08-12T18:01:01;18.20;99.90
25436;DHT22;13363;52.772;-3.890;2023-08-12T18:03:27;18.20;99.90
25436;DHT22;13363;52.772;-3.890;2023-08-12T18:05:52;18.30;99.90
25436;DHT22;13363;52.772;-3.890;2023-08-12T18:08:18;18.20;99.90
25436;DHT22;13363;52.772;-3.890;2023-08-12T18:10:44;18.10;99.90
25436;DHT22;13363;52.772;-3.890;2023-08-12T18:13:10;18.10;99.90
25436;DHT22;13363;52.772;-3.890;2023-08-12T18:15:36;18.10;99.90
25436;DHT22;13363;52.772;-3.890;2023-08-12T18:18:02;18.10;99.90
25436;DHT22;13363;52.772;-3.890;2023-08-12T18:20:28;18.00;99.90
25436;DHT22;13363;52.772;-3.890;2023-08-12T18:22:55;18.00;99.90
25436;DHT22;13363;52.772;-3.890;2023-08-12T18:25:20;18.00;99.90
25436;DHT22;13363;52.772;-3.890;2023-08-12T18:27:46;17.90;99.90
25436;DHT22;13363;52.772;-3.890;2023-08-12T18:30:12;17.90;99.90
25436;DHT22;13363;52.772;-3.890;2023-08-12T18:32:39;17.90;99.90
25436;DHT22;13363;52.772;-3.890;2023-08-12T18:35:05;18.00;99.90
25436;DHT22;13363;52.772;-3.890;2023-08-12T18:37:32;17.90;99.90
25436;DHT22;13363;52.772;-3.890;2023-08-12T18:40:05;17.90;99.90
25436;DHT22;13363;52.772;-3.890;2023-08-12T18:42:33;17.90;99.90
25436;DHT22;13363;52.772;-3.890;2023-08-12T18:44:59;17.90;99.90
25436;DHT22;13363;52.772;-3.890;2023-08-12T18:47:25;17.90;99.90
25436;DHT22;13363;52.772;-3.890;2023-08-12T18:49:50;17.90;99.90
25436;DHT22;13363;52.772;-3.890;2023-08-12T18:52:16;17.90;99.90
25436;DHT22;13363;52.772;-3.890;2023-08-12T18:54:42;17.90;99.90
25436;DHT22;13363;52.772;-3.890;2023-08-12T18:57:08;17.90;99.90
25436;DHT22;13363;52.772;-3.890;2023-08-12T18:59:34;17.80;99.90
25436;DHT22;13363;52.772;-3.890;2023-08-12T19:02:00;17.80;99.90
25436;DHT22;13363;52.772;-3.890;2023-08-12T19:04:26;17.70;99.90
25436;DHT22;13363;52.772;-3.890;2023-08-12T19:06:52;17.70;99.90
25436;DHT22;13363;52.772;-3.890;2023-08-12T19:09:18;17.70;99.90
25436;DHT22;13363;52.772;-3.890;2023-08-12T19:11:46;17.70;99.90
25436;DHT22;13363;52.772;-3.890;2023-08-12T19:14:15;17.70;99.90
25436;DHT22;13363;52.772;-3.890;2023-08-12T19:16:40;17.70;99.90
25436;DHT22;13363;52.772;-3.890;2023-08-12T19:19:06;17.70;99.90
25436;DHT22;13363;52.772;-3.890;2023-08-12T19:21:32;17.70;99.90
25436;DHT22;13363;52.772;-3.890;2023-08-12T19:23:58;17.60;99.90
25436;DHT22;13363;52.772;-3.890;2023-08-12T19:26:24;17.60;99.90
25436;DHT22;13363;52.772;-3.890;2023-08-12T19:28:50;17.60;99.90
25436;DHT22;13363;52.772;-3.890;2023-08-12T19:31:16;17.60;99.90
25436;DHT22;13363;52.772;-3.890;2023-08-12T19:33:43;17.50;99.90
25436;DHT22;13363;52.772;-3.890;2023-08-12T19:36:09;17.50;99.90
25436;DHT22;13363;52.772;-3.890;2023-08-12T19:38:35;17.50;99.90
25436;DHT22;13363;52.772;-3.890;2023-08-12T19:41:01;17.50;99.90
25436;DHT22;13363;52.772;-3.890;2023-08-12T19:43:29;17.60;99.90
25436;DHT22;13363;52.772;-3.890;2023-08-12T19:45:56;17.60;99.90
25436;DHT22;13363;52.772;-3.890;2023-08-12T19:50:48;17.60;99.90
25436;DHT22;13363;52.772;-3.890;2023-08-12T19:53:18;17.50;99.90
25436;DHT22;13363;52.772;-3.890;2023-08-12T19:55:44;17.50;99.90
25436;DHT22;13363;52.772;-3.890;2023-08-12T19:58:10;17.50;99.90
25436;DHT22;13363;52.772;-3.890;2023-08-12T20:00:36;17.50;99.90
25436;DHT22;13363;52.772;-3.890;2023-08-12T20:03:02;17.50;99.90
25436;DHT22;13363;52.772;-3.890;2023-08-12T20:05:28;17.50;99.90
25436;DHT22;13363;52.772;-3.890;2023-08-12T20:07:56;17.50;99.90
25436;DHT22;13363;52.772;-3.890;2023-08-12T20:10:22;17.50;99.90
25436;DHT22;13363;52.772;-3.890;2023-08-12T20:12:48;17.50;99.90
25436;DHT22;13363;52.772;-3.890;2023-08-12T20:15:14;17.50;99.90
25436;DHT22;13363;52.772;-3.890;2023-08-12T20:17:40;17.50;99.90
25436;DHT22;13363;52.772;-3.890;2023-08-12T20:20:07;17.40;99.90
25436;DHT22;13363;52.772;-3.890;2023-08-12T20:22:41;17.50;99.90
25436;DHT22;13363;52.772;-3.890;2023-08-12T20:25:11;17.50;99.90
25436;DHT22;13363;52.772;-3.890;2023-08-12T20:27:37;17.50;99.90
25436;DHT22;13363;52.772;-3.890;2023-08-12T20:30:03;17.50;99.90
25436;DHT22;13363;52.772;-3.890;2023-08-12T20:32:31;17.50;99.90
25436;DHT22;13363;52.772;-3.890;2023-08-12T20:35:00;17.50;99.90
25436;DHT22;13363;52.772;-3.890;2023-08-12T20:37:27;17.40;99.90
25436;DHT22;13363;52.772;-3.890;2023-08-12T20:39:53;17.40;99.90
25436;DHT22;13363;52.772;-3.890;2023-08-12T20:42:20;17.30;99.90
25436;DHT22;13363;52.772;-3.890;2023-08-12T20:44:46;17.30;99.90
25436;DHT22;13363;52.772;-3.890;2023-08-12T20:47:12;17.20;99.90
25436;DHT22;13363;52.772;-3.890;2023-08-12T20:49:38;17.20;99.90
25436;DHT22;13363;52.772;-3.890;2023-08-12T20:52:05;17.30;99.90
25436;DHT22;13363;52.772;-3.890;2023-08-12T20:54:31;17.30;99.90
25436;DHT22;13363;52.772;-3.890;2023-08-12T20:56:56;17.30;99.90
25436;DHT22;13363;52.772;-3.890;2023-08-12T20:59:22;17.20;99.90
25436;DHT22;13363;52.772;-3.890;2023-08-12T21:01:48;17.30;99.90
25436;DHT22;13363;52.772;-3.890;2023-08-12T21:04:14;17.30;99.90
25436;DHT22;13363;52.772;-3.890;2023-08-12T21:06:40;17.20;99.90
25436;DHT22;13363;52.772;-3.890;2023-08-12T21:09:06;17.20;99.90
25436;DHT22;13363;52.772;-3.890;2023-08-12T21:11:32;17.20;99.90
25436;DHT22;13363;52.772;-3.890;2023-08-12T21:13:58;17.10;99.90
25436;DHT22;13363;52.772;-3.890;2023-08-12T21:16:24;16.90;99.90
25436;DHT22;13363;52.772;-3.890;2023-08-12T21:18:49;17.10;99.90
25436;DHT22;13363;52.772;-3.890;2023-08-12T21:21:15;17.10;99.90
25436;DHT22;13363;52.772;-3.890;2023-08-12T21:23:41;17.00;99.90
25436;DHT22;13363;52.772;-3.890;2023-08-12T21:26:07;17.10;99.90
25436;DHT22;13363;52.772;-3.890;2023-08-12T21:28:33;17.10;99.90
25436;DHT22;13363;52.772;-3.890;2023-08-12T21:30:59;17.10;99.90
25436;DHT22;13363;52.772;-3.890;2023-08-12T21:33:25;17.10;99.90
25436;DHT22;13363;52.772;-3.890;2023-08-12T21:35:50;17.00;99.90
25436;DHT22;13363;52.772;-3.890;2023-08-12T21:38:16;17.00;99.90
25436;DHT22;13363;52.772;-3.890;2023-08-12T21:40:42;17.00;99.90
25436;DHT22;13363;52.772;-3.890;2023-08-12T21:43:08;17.00;99.90
25436;DHT22;13363;52.772;-3.890;2023-08-12T21:45:34;16.90;99.90
25436;DHT22;13363;52.772;-3.890;2023-08-12T21:48:00;17.00;99.90
25436;DHT22;13363;52.772;-3.890;2023-08-12T21:50:25;17.00;99.90
25436;DHT22;13363;52.772;-3.890;2023-08-12T21:52:51;17.00;99.90
25436;DHT22;13363;52.772;-3.890;2023-08-12T21:55:17;17.10;99.90
25436;DHT22;13363;52.772;-3.890;2023-08-12T21:57:43;17.10;99.90
25436;DHT22;13363;52.772;-3.890;2023-08-12T22:00:10;17.00;99.90
25436;DHT22;13363;52.772;-3.890;2023-08-12T22:02:37;17.00;99.90
25436;DHT22;13363;52.772;-3.890;2023-08-12T22:05:03;17.00;99.90
25436;DHT22;13363;52.772;-3.890;2023-08-12T22:07:30;17.10;99.90
25436;DHT22;13363;52.772;-3.890;2023-08-12T22:09:56;17.00;99.90
25436;DHT22;13363;52.772;-3.890;2023-08-12T22:12:22;17.00;99.90
25436;DHT22;13363;52.772;-3.890;2023-08-12T22:14:48;17.00;99.90
25436;DHT22;13363;52.772;-3.890;2023-08-12T22:17:14;17.00;99.90
25436;DHT22;13363;52.772;-3.890;2023-08-12T22:19:39;17.00;99.90
25436;DHT22;13363;52.772;-3.890;2023-08-12T22:22:05;17.10;99.90
25436;DHT22;13363;52.772;-3.890;2023-08-12T22:24:31;17.00;99.90
25436;DHT22;13363;52.772;-3.890;2023-08-12T22:26:57;17.00;99.90
25436;DHT22;13363;52.772;-3.890;2023-08-12T22:29:23;17.00;99.90
25436;DHT22;13363;52.772;-3.890;2023-08-12T22:31:49;17.10;99.90
25436;DHT22;13363;52.772;-3.890;2023-08-12T22:34:14;17.10;99.90
25436;DHT22;13363;52.772;-3.890;2023-08-12T22:36:41;17.00;99.90
25436;DHT22;13363;52.772;-3.890;2023-08-12T22:39:07;17.10;99.90
25436;DHT22;13363;52.772;-3.890;2023-08-12T22:41:33;17.10;99.90
25436;DHT22;13363;52.772;-3.890;2023-08-12T22:44:00;17.10;99.90
25436;DHT22;13363;52.772;-3.890;2023-08-12T22:46:26;17.10;99.90
25436;DHT22;13363;52.772;-3.890;2023-08-12T22:48:52;17.00;99.90
25436;DHT22;13363;52.772;-3.890;2023-08-12T22:51:19;17.00;99.90
25436;DHT22;13363;52.772;-3.890;2023-08-12T22:53:46;17.00;99.90